This is the latest recevied weather packets stored in our database for station/object IZ2XCK-13. If no packets are shown the sender has not sent any weather packets the latest 10 day(s).
| Time | Temp. | Humidity | Pressure | Rain* | Wind** | Luminosity | Snow |
|---|---|---|---|---|---|---|---|
| 1777515896 | 11.11° C | 94% | 1022.8 hPa | - | - | - | - |
| 1777514696 | 12.22° C | 80% | 1022.7 hPa | - | - | - | - |
| 1777513495 | 12.22° C | 81% | 1022.6 hPa | - | - | - | - |
| 1777512295 | 12.78° C | 80% | 1022.3 hPa | - | - | - | - |
| 1777511095 | 12.78° C | 81% | 1022.2 hPa | - | - | - | - |
| 1777509894 | 12.22° C | 80% | 1022.1 hPa | - | - | - | - |
| 1777508694 | 12.22° C | 83% | 1022.2 hPa | - | - | - | - |
| 1777507494 | 11.11° C | 89% | 1022 hPa | - | - | - | - |
| 1777506293 | 11.67° C | 83% | 1021.7 hPa | - | - | - | - |
| 1777505093 | 12.22° C | 80% | 1021.5 hPa | - | - | - | - |
| 1777503893 | 11.67° C | 84% | 1021.5 hPa | - | - | - | - |
| 1777502692 | 11.67° C | 85% | 1021.4 hPa | - | - | - | - |
| 1777501492 | 12.78° C | 81% | 1021.2 hPa | - | - | - | - |
| 1777500292 | 12.22° C | 81% | 1021 hPa | - | - | - | - |
| 1777499092 | 12.22° C | 86% | 1020.9 hPa | - | - | - | - |
| 1777497891 | 12.78° C | 83% | 1020.8 hPa | - | - | - | - |
| 1777496691 | 13.33° C | 82% | 1020.6 hPa | - | - | - | - |
| 1777495491 | 13.89° C | 83% | 1020.5 hPa | - | - | - | - |
| 1777494290 | 13.89° C | 85% | 1020.5 hPa | - | - | - | - |
| 1777493090 | 13.33° C | 88% | 1020.3 hPa | - | - | - | - |
| 1777491890 | 13.33° C | 88% | 1020 hPa | - | - | - | - |
| 1777490689 | 13.89° C | 86% | 1019.6 hPa | - | - | - | - |
| 1777489489 | 13.33° C | 91% | 1019.4 hPa | - | - | - | - |
| 1777488289 | 13.89° C | 86% | 1019.2 hPa | - | - | - | - |
| 1777487089 | 13.89° C | 87% | 1018.9 hPa | - | - | - | - |
* Rain since midnight (hover to see other rain measurements)
** Current wind speed in m/s (hover to see current wind gust speed)